Time;durP1;ratioP1;P1;durP2;ratioP2;P2;SDS_P1;SDS_P2;PMS_P1;PMS_P2;Temp;Humidity;BMP_temperature;BMP_pressure;BME280_temperature;BME280_humidity;BME280_pressure;Samples;Min_cycle;Max_cycle;Signal;HPM_P1;HPM_P2
2023/07/24 00:01:37;;;;;;;;;6.00;3.00;;;;;21.04;66.12;99993.16;5119832;27;45491;-78
2023/07/24 00:04:03;;;;;;;;;5.33;4.33;;;;;21.07;66.16;99983.84;5120121;27;51377;-78
2023/07/24 00:06:28;;;;;;;;;4.00;4.00;;;;;21.02;66.02;99987.06;5129760;27;45350;-77
2023/07/24 00:08:53;;;;;;;;;5.67;4.00;;;;;21.05;66.24;99975.06;5121153;27;45622;-77
2023/07/24 00:11:19;;;;;;;;;6.33;3.33;;;;;20.97;66.47;99966.97;5140824;27;46172;-77
2023/07/24 00:13:45;;;;;;;;;4.00;4.00;;;;;20.96;66.61;99963.41;5140679;27;45454;-78
2023/07/24 00:16:10;;;;;;;;;3.67;3.67;;;;;20.99;66.56;99971.19;5140845;27;45257;-79
2023/07/24 00:18:36;;;;;;;;;5.00;3.00;;;;;20.99;66.29;99967.66;5136030;27;45380;-78
2023/07/24 00:21:01;;;;;;;;;6.33;3.67;;;;;21.03;66.11;99955.47;5120137;27;46111;-79
2023/07/24 00:23:27;;;;;;;;;3.00;3.00;;;;;20.99;66.05;99962.25;5123281;27;45510;-79
2023/07/24 00:25:53;;;;;;;;;0.33;0.33;;;;;20.88;66.28;99952.59;5140717;27;45279;-76
2023/07/24 00:28:21;;;;;;;;;5.33;3.33;;;;;20.93;66.28;99950.22;5139246;27;45601;-77
2023/07/24 00:30:46;;;;;;;;;3.67;3.33;;;;;20.90;66.66;99956.81;5130911;27;46885;-79
2023/07/24 00:33:11;;;;;;;;;1.67;1.67;;;;;20.78;66.84;99927.59;5101062;27;45717;-78
2023/07/24 00:35:36;;;;;;;;;3.67;2.67;;;;;20.95;66.49;99952.75;5118886;27;58754;-78
2023/07/24 00:38:02;;;;;;;;;2.00;2.00;;;;;20.95;66.31;99934.69;5101455;27;45433;-77
2023/07/24 00:40:27;;;;;;;;;5.00;5.00;;;;;20.78;66.26;99909.53;5140088;27;45319;-76
2023/07/24 00:42:53;;;;;;;;;3.00;3.00;;;;;20.94;66.15;99924.03;5139138;27;45392;-80
2023/07/24 00:45:21;;;;;;;;;7.33;4.00;;;;;20.94;65.91;99915.94;5140242;27;45342;-78
2023/07/24 00:47:47;;;;;;;;;4.33;3.00;;;;;20.86;66.01;99898.72;5140415;27;45274;-82
2023/07/24 00:50:13;;;;;;;;;4.00;4.00;;;;;20.89;65.83;99887.56;5123960;27;46280;-80
2023/07/24 00:52:39;;;;;;;;;3.67;3.67;;;;;20.86;65.92;99869.00;5119203;27;45244;-77
2023/07/24 00:55:06;;;;;;;;;4.00;3.67;;;;;20.80;65.81;99860.69;5119635;27;45582;-80
2023/07/24 00:57:32;;;;;;;;;2.00;2.00;;;;;20.64;65.71;99841.78;5119652;27;45653;-78
2023/07/24 00:59:57;;;;;;;;;2.67;2.67;;;;;20.78;65.82;99893.31;5099574;27;48097;-79
2023/07/24 01:02:22;;;;;;;;;4.33;3.67;;;;;20.79;65.59;99889.59;5118916;27;45317;-78
2023/07/24 01:04:48;;;;;;;;;5.00;5.00;;;;;20.81;65.58;99897.53;5119249;27;45459;-78
2023/07/24 01:07:16;;;;;;;;;4.00;4.00;;;;;20.66;65.54;99883.00;5100526;27;45406;-79
2023/07/24 01:09:41;;;;;;;;;5.00;5.00;;;;;20.76;65.44;99906.16;5099412;27;47633;-78
2023/07/24 01:12:17;;;;;;;;;4.00;4.00;;;;;20.76;65.40;99900.75;5140032;27;45341;-80
2023/07/24 01:14:47;;;;;;;;;3.00;3.00;;;;;20.74;65.33;99896.53;5139736;27;45340;-76
2023/07/24 01:17:20;;;;;;;;;4.67;3.67;;;;;20.76;65.01;99899.91;5138540;27;45469;-79
2023/07/24 01:19:56;;;;;;;;;5.00;5.00;;;;;20.74;64.65;99918.13;5138589;27;46296;-81
2023/07/24 01:22:27;;;;;;;;;4.33;4.33;;;;;20.72;64.81;99922.88;5139566;27;45427;-76
2023/07/24 01:25:21;;;;;;;;;5.67;4.00;;;;;20.72;64.50;99936.38;5139695;27;45283;-77
2023/07/24 01:27:47;;;;;;;;;5.00;3.67;;;;;20.73;64.34;99917.28;5132723;27;45239;-76
2023/07/24 01:30:15;;;;;;;;;3.00;3.00;;;;;20.65;64.11;99897.53;5100141;27;47204;-78
2023/07/24 01:32:41;;;;;;;;;4.00;4.00;;;;;20.66;64.18;99915.41;5118723;27;45416;-77
2023/07/24 01:35:06;;;;;;;;;4.00;3.00;;;;;20.69;64.57;99915.06;5118115;27;45324;-76
2023/07/24 01:37:35;;;;;;;;;4.00;4.00;;;;;20.69;64.25;99909.66;5129087;27;45438;-78
2023/07/24 01:40:02;;;;;;;;;5.00;5.00;;;;;20.55;64.51;99901.22;5118623;27;46053;-77
2023/07/24 01:42:27;;;;;;;;;4.00;4.00;;;;;20.56;64.41;99897.50;5118458;27;45370;-75
2023/07/24 01:44:54;;;;;;;;;5.00;5.00;;;;;20.65;64.28;99892.97;5118644;27;45251;-76
2023/07/24 01:47:20;;;;;;;;;6.67;6.67;;;;;20.68;64.31;99897.19;5134755;27;45387;-77
2023/07/24 01:49:45;;;;;;;;;5.67;5.67;;;;;20.67;64.20;99896.34;5139184;27;45495;-78
2023/07/24 01:52:10;;;;;;;;;6.00;4.00;;;;;20.59;64.30;99883.69;5118605;27;45427;-80
2023/07/24 01:54:36;;;;;;;;;4.67;4.67;;;;;20.64;64.03;99874.22;5119405;27;45937;-78
2023/07/24 01:57:01;;;;;;;;;5.33;4.00;;;;;20.67;63.83;99865.78;5138166;27;45355;-77
2023/07/24 01:59:26;;;;;;;;;5.00;4.00;;;;;20.67;64.02;99874.72;5138896;27;45352;-78
2023/07/24 02:01:51;;;;;;;;;5.00;5.00;;;;;20.58;63.98;99865.78;5138896;27;45292;-78
2023/07/24 02:04:17;;;;;;;;;3.00;3.00;;;;;20.61;64.21;99878.94;5139260;27;45529;-79
2023/07/24 02:06:42;;;;;;;;;7.00;4.00;;;;;20.55;64.76;99876.06;5138890;27;45254;-77
2023/07/24 02:09:07;;;;;;;;;4.00;4.00;;;;;20.44;65.04;99866.41;5138601;27;45355;-76
2023/07/24 02:11:33;;;;;;;;;6.00;6.00;;;;;20.48;64.99;99886.69;5139224;27;45362;-77
2023/07/24 02:13:59;;;;;;;;;4.33;4.33;;;;;20.39;65.27;99881.41;5139276;27;45421;-80
2023/07/24 02:16:24;;;;;;;;;3.00;1.33;;;;;20.36;66.08;99870.94;5118731;27;45359;-78
2023/07/24 02:18:50;;;;;;;;;4.00;4.00;;;;;20.42;66.06;99876.56;5134657;27;45403;-78
2023/07/24 02:21:15;;;;;;;;;3.00;3.00;;;;;20.39;66.41;99871.44;5138685;27;45352;-79
2023/07/24 02:23:40;;;;;;;;;6.00;5.00;;;;;20.29;66.13;99874.31;5122776;27;45297;-76
2023/07/24 02:26:06;;;;;;;;;5.67;4.00;;;;;20.30;66.89;99903.00;5099737;27;45639;-77
2023/07/24 02:28:31;;;;;;;;;4.00;4.00;;;;;20.31;67.28;99901.13;5116929;27;47178;-76
2023/07/24 02:30:57;;;;;;;;;4.00;4.00;;;;;20.13;67.83;99865.31;5099255;27;45389;-78
2023/07/24 02:33:22;;;;;;;;;2.00;2.00;;;;;20.18;67.93;99882.75;5117995;27;45634;-77
2023/07/24 02:35:51;;;;;;;;;3.33;3.33;;;;;19.98;67.75;99852.47;5098470;27;45289;-75
2023/07/24 02:38:17;;;;;;;;;2.33;2.33;;;;;20.18;67.79;99884.56;5118643;27;46949;-76
2023/07/24 02:40:43;;;;;;;;;4.00;4.00;;;;;20.14;68.05;99872.41;5138558;27;46442;-77
2023/07/24 02:43:09;;;;;;;;;6.00;4.00;;;;;20.14;67.89;99877.81;5138710;27;45306;-77
2023/07/24 02:45:34;;;;;;;;;4.00;4.00;;;;;20.09;67.90;99863.97;5138509;27;45544;-79
2023/07/24 02:48:01;;;;;;;;;6.33;4.00;;;;;20.10;67.62;99865.66;5136819;27;46202;-77
2023/07/24 02:50:27;;;;;;;;;5.00;4.33;;;;;20.06;67.83;99864.31;5138186;27;45251;-77
2023/07/24 02:52:52;;;;;;;;;8.33;4.67;;;;;20.11;67.74;99864.66;5138291;27;45325;-76
2023/07/24 02:55:18;;;;;;;;;5.33;4.67;;;;;20.10;67.88;99862.97;5124601;27;45320;-78
2023/07/24 02:57:43;;;;;;;;;5.00;5.00;;;;;20.06;67.58;99859.75;5117032;27;46508;-76
2023/07/24 03:00:09;;;;;;;;;4.67;3.33;;;;;20.01;67.49;99857.53;5117311;27;45365;-77
2023/07/24 03:02:34;;;;;;;;;4.00;4.00;;;;;20.10;67.99;99879.16;5099322;27;45277;-77
2023/07/24 03:05:00;;;;;;;;;3.67;3.67;;;;;20.07;68.32;99893.00;5121412;27;45492;-77
2023/07/24 03:07:25;;;;;;;;;3.33;3.33;;;;;19.92;68.82;99869.34;5127154;27;46038;-76
2023/07/24 03:09:51;;;;;;;;;3.00;3.00;;;;;20.07;69.78;99893.84;5141736;27;45312;-77
2023/07/24 03:12:16;;;;;;;;;6.67;5.33;;;;;20.03;69.01;99895.16;5141670;27;45300;-74
2023/07/24 03:14:41;;;;;;;;;5.33;4.67;;;;;20.03;70.23;99892.44;5136673;27;45340;-76
2023/07/24 03:17:07;;;;;;;;;5.00;5.00;;;;;20.01;70.95;99879.13;5124361;27;49999;-75
2023/07/24 03:19:32;;;;;;;;;4.00;4.00;;;;;19.77;71.04;99843.94;5141493;27;45451;-78
2023/07/24 03:21:57;;;;;;;;;3.00;3.00;;;;;19.85;70.63;99868.28;5141409;27;49783;-77
2023/07/24 03:24:23;;;;;;;;;4.00;4.00;;;;;19.80;71.58;99865.25;5140468;27;45474;-76
2023/07/24 03:26:48;;;;;;;;;3.00;3.00;;;;;19.88;71.49;99886.84;5121687;27;46857;-77
2023/07/24 03:29:13;;;;;;;;;3.67;3.00;;;;;19.82;71.48;99881.25;5141403;27;53060;-77
2023/07/24 03:31:39;;;;;;;;;5.67;5.67;;;;;19.70;72.65;99876.16;5140954;27;57006;-76
2023/07/24 03:34:04;;;;;;;;;4.00;4.00;;;;;19.63;72.58;99858.91;5141587;27;45533;-77
2023/07/24 03:36:29;;;;;;;;;5.00;3.67;;;;;19.69;71.87;99876.31;5140049;27;45389;-77
2023/07/24 03:38:55;;;;;;;;;3.00;3.00;;;;;19.63;72.42;99891.28;5140312;27;45429;-79
2023/07/24 03:41:20;;;;;;;;;5.00;5.00;;;;;19.61;72.72;99879.81;5123032;27;45240;-78
2023/07/24 03:43:45;;;;;;;;;4.00;4.00;;;;;19.55;72.69;99860.75;5140897;27;45271;-77
2023/07/24 03:46:11;;;;;;;;;10.00;5.00;;;;;19.46;73.27;99862.50;5141308;27;46187;-78
2023/07/24 03:48:36;;;;;;;;;10.00;5.00;;;;;19.15;73.72;99830.69;5123755;27;45489;-78
2023/07/24 03:51:02;;;;;;;;;5.33;4.00;;;;;19.25;73.75;99843.16;5120572;27;45276;-77
2023/07/24 03:53:28;;;;;;;;;3.67;3.67;;;;;19.30;74.54;99835.47;5120621;27;45348;-76
2023/07/24 03:55:54;;;;;;;;;4.00;3.00;;;;;19.32;74.44;99844.25;5120432;27;46065;-78
2023/07/24 03:58:20;;;;;;;;;3.33;3.33;;;;;19.05;74.49;99800.28;5119378;27;45358;-77
2023/07/24 04:00:46;;;;;;;;;6.00;6.00;;;;;19.26;73.81;99840.31;5120360;27;45220;-77
2023/07/24 04:03:11;;;;;;;;;4.00;4.00;;;;;19.22;74.94;99846.19;5120399;27;45506;-78
2023/07/24 04:05:36;;;;;;;;;3.67;3.67;;;;;19.20;75.60;99846.34;5119836;27;45967;-76
2023/07/24 04:08:03;;;;;;;;;5.33;4.33;;;;;19.06;75.72;99825.38;5129299;27;45336;-78
2023/07/24 04:10:30;;;;;;;;;3.00;3.00;;;;;19.26;75.77;99842.16;5125028;27;45401;-79
2023/07/24 04:12:56;;;;;;;;;4.67;4.00;;;;;19.25;76.42;99843.16;5120183;27;45237;-77
2023/07/24 04:15:22;;;;;;;;;5.33;4.00;;;;;19.23;76.13;99846.03;5100733;27;45977;-78
2023/07/24 04:17:47;;;;;;;;;7.67;7.00;;;;;19.25;76.35;99854.81;5127033;27;45431;-77
2023/07/24 04:20:12;;;;;;;;;5.00;4.00;;;;;19.28;76.46;99859.91;5119681;27;45236;-78
2023/07/24 04:22:38;;;;;;;;;4.33;3.00;;;;;19.29;76.24;99855.34;5120047;27;45295;-78
2023/07/24 04:25:03;;;;;;;;;5.67;5.67;;;;;19.20;76.15;99832.88;5122873;27;45514;-76
2023/07/24 04:27:29;;;;;;;;;6.33;4.67;;;;;19.29;76.39;99847.25;5139349;27;45194;-77
2023/07/24 04:29:54;;;;;;;;;6.00;4.33;;;;;19.22;77.01;99838.94;5140532;27;45172;-78
2023/07/24 04:32:20;;;;;;;;;7.67;4.00;;;;;19.04;77.57;99822.84;5141102;27;45741;-77
2023/07/24 04:34:45;;;;;;;;;4.00;4.00;;;;;19.11;77.06;99841.91;5138279;27;45519;-80
2023/07/24 04:37:10;;;;;;;;;5.00;5.00;;;;;19.16;77.17;99839.59;5103160;27;45463;-78
2023/07/24 04:39:38;;;;;;;;;7.33;4.33;;;;;19.10;77.41;99829.44;5140526;27;45507;-77
2023/07/24 04:42:04;;;;;;;;;4.00;4.00;;;;;19.01;77.60;99819.59;5140209;27;45480;-77
2023/07/24 04:44:29;;;;;;;;;4.33;3.00;;;;;19.05;77.69;99835.31;5140096;27;46444;-79
2023/07/24 04:46:55;;;;;;;;;3.67;3.67;;;;;19.11;77.42;99847.31;5138880;27;45234;-76
2023/07/24 04:49:21;;;;;;;;;4.33;4.33;;;;;19.11;77.81;99841.91;5136004;27;45486;-79
2023/07/24 04:51:46;;;;;;;;;4.00;0.67;;;;;19.13;76.83;99837.19;5140762;27;45583;-77
2023/07/24 04:54:12;;;;;;;;;3.00;3.00;;;;;19.16;76.55;99836.91;5120343;27;46116;-77
2023/07/24 04:56:37;;;;;;;;;3.33;3.33;;;;;19.13;75.86;99831.81;5140068;27;45408;-77
2023/07/24 04:59:02;;;;;;;;;5.67;4.00;;;;;19.29;75.78;99850.81;5139043;27;45616;-79
2023/07/24 05:01:28;;;;;;;;;2.33;2.33;;;;;19.35;75.66;99860.94;5140081;27;45464;-77
2023/07/24 05:03:53;;;;;;;;;3.00;3.00;;;;;19.39;75.37;99854.19;5129977;27;45498;-76
2023/07/24 05:06:18;;;;;;;;;4.33;4.00;;;;;19.45;74.84;99852.72;5127519;27;65929;-79
2023/07/24 05:08:43;;;;;;;;;4.33;3.00;;;;;19.39;74.53;99834.47;5136991;27;45371;-80
2023/07/24 05:11:09;;;;;;;;;3.00;3.00;;;;;19.54;73.53;99853.63;5137694;27;45575;-79
2023/07/24 05:13:34;;;;;;;;;4.67;3.00;;;;;19.59;73.76;99848.63;5137170;27;45540;-75
2023/07/24 05:16:00;;;;;;;;;4.00;4.00;;;;;19.67;73.72;99851.34;5134550;27;45854;-80
2023/07/24 05:18:27;;;;;;;;;2.33;2.33;;;;;19.68;73.20;99856.59;5134064;27;45500;-79
2023/07/24 05:20:53;;;;;;;;;2.00;2.00;;;;;19.73;72.70;99848.00;5137007;27;45450;-79
2023/07/24 05:23:18;;;;;;;;;3.00;3.00;;;;;19.83;72.45;99855.97;5120844;27;45413;-78
2023/07/24 05:25:44;;;;;;;;;4.33;3.00;;;;;19.90;71.55;99838.94;5138430;27;45451;-78
2023/07/24 05:28:09;;;;;;;;;4.00;2.33;;;;;19.63;70.83;99801.41;5133822;27;45617;-78
2023/07/24 05:30:35;;;;;;;;;4.33;4.00;;;;;20.01;70.64;99837.78;5117695;27;45535;-76
2023/07/24 05:33:00;;;;;;;;;2.67;2.67;;;;;20.11;70.18;99834.97;5137268;27;45432;-76
2023/07/24 05:35:26;;;;;;;;;2.00;2.00;;;;;20.25;69.67;99828.91;5134488;27;45506;-80
2023/07/24 05:37:51;;;;;;;;;1.67;1.67;;;;;20.70;68.14;99828.44;5131411;27;45324;-79
2023/07/24 05:40:16;;;;;;;;;1.67;1.67;;;;;20.87;66.80;99835.53;5115750;27;45318;-78
2023/07/24 05:42:43;;;;;;;;;3.67;2.33;;;;;21.36;65.12;99837.34;5118455;27;45255;-78
2023/07/24 05:45:09;;;;;;;;;2.67;2.00;;;;;21.51;64.93;99832.91;5122221;27;45466;-78
2023/07/24 05:47:35;;;;;;;;;0.67;0.67;;;;;21.64;63.64;99829.63;5126061;27;45332;-78
2023/07/24 05:50:00;;;;;;;;;1.33;1.33;;;;;21.52;63.47;99842.69;5137865;27;45398;-79
2023/07/24 05:52:25;;;;;;;;;0.67;0.67;;;;;21.30;63.58;99828.06;5120017;27;47396;-78
2023/07/24 05:54:51;;;;;;;;;2.67;1.67;;;;;21.13;64.05;99826.38;5134532;27;45856;-79
2023/07/24 05:57:16;;;;;;;;;1.50;1.50;;;;;21.01;64.60;99828.59;5126175;27;45489;-83
2023/07/24 05:59:41;;;;;;;;;2.00;2.00;;;;;20.60;64.68;99780.00;5109568;27;45417;-81
2023/07/24 06:02:08;;;;;;;;;0.67;0.67;;;;;20.93;64.00;99834.00;5128321;27;46076;-79
2023/07/24 06:04:33;;;;;;;;;1.33;1.33;;;;;20.77;63.90;99817.81;5126724;27;45528;-80
2023/07/24 06:06:59;;;;;;;;;0.00;0.00;;;;;20.76;63.84;99841.28;5122523;27;45543;-80
2023/07/24 06:09:24;;;;;;;;;2.00;2.00;;;;;20.55;63.94;99814.78;5099878;27;45425;-80
2023/07/24 06:11:53;;;;;;;;;1.33;1.33;;;;;20.71;63.55;99848.22;5099900;27;48047;-77
2023/07/24 06:14:19;;;;;;;;;3.00;1.33;;;;;20.89;62.76;99848.88;5117758;27;45225;-80
2023/07/24 06:16:45;;;;;;;;;2.00;2.00;;;;;21.05;62.00;99846.16;5117728;27;45364;-78
2023/07/24 06:19:10;;;;;;;;;3.00;1.67;;;;;21.30;61.57;99849.69;5134421;27;45516;-78
2023/07/24 06:21:35;;;;;;;;;1.50;1.50;;;;;21.73;59.42;99823.16;5137381;27;46107;-79
2023/07/24 06:24:01;;;;;;;;;1.67;1.67;;;;;22.24;56.85;99854.19;5120013;27;45573;-78
2023/07/24 06:26:26;;;;;;;;;2.00;2.00;;;;;22.02;57.19;99828.75;5138615;27;45553;-76
2023/07/24 06:28:51;;;;;;;;;2.00;2.00;;;;;22.13;56.87;99865.44;5137799;27;45301;-78
2023/07/24 06:31:17;;;;;;;;;1.33;1.33;;;;;22.21;56.76;99862.69;5117393;27;46170;-77
2023/07/24 06:33:42;;;;;;;;;1.67;1.67;;;;;22.22;56.67;99860.81;5117485;27;45459;-80
2023/07/24 06:36:11;;;;;;;;;1.67;1.67;;;;;22.51;55.86;99865.53;5098938;27;45318;-78
2023/07/24 06:38:36;;;;;;;;;3.67;2.33;;;;;22.62;55.17;99852.41;5122657;27;45500;-77
2023/07/24 06:41:02;;;;;;;;;1.75;1.75;;;;;22.81;54.40;99844.81;5098189;27;47420;-77
2023/07/24 06:43:28;;;;;;;;;1.75;1.75;;;;;22.91;54.36;99848.97;5117126;27;45360;-77
2023/07/24 06:45:53;;;;;;;;;1.00;1.00;;;;;23.09;53.63;99847.81;5117809;27;45422;-81
2023/07/24 06:48:19;;;;;;;;;3.50;1.25;;;;;23.12;52.91;99825.72;5117555;27;45321;-78
2023/07/24 06:50:44;;;;;;;;;1.00;1.00;;;;;23.24;52.07;99846.78;5117390;27;47226;-77
2023/07/24 06:53:09;;;;;;;;;1.50;1.50;;;;;23.03;52.88;99853.94;5117217;27;45261;-77
2023/07/24 06:55:34;;;;;;;;;2.00;2.00;;;;;22.78;53.18;99837.88;5098803;27;48260;-78
2023/07/24 06:58:00;;;;;;;;;1.00;1.00;;;;;22.69;53.23;99857.97;5098936;27;46902;-82
2023/07/24 07:00:25;;;;;;;;;2.00;2.00;;;;;22.69;53.06;99863.38;5117599;27;45455;-81
2023/07/24 07:02:50;;;;;;;;;3.50;2.00;;;;;22.58;53.35;99852.97;5117339;27;45282;-81
2023/07/24 07:05:16;;;;;;;;;1.50;1.50;;;;;22.58;53.41;99842.13;5117438;27;45218;-80
2023/07/24 07:07:41;;;;;;;;;2.25;1.00;;;;;22.55;52.78;99832.50;5117583;27;45521;-79
2023/07/24 07:10:07;;;;;;;;;2.00;2.00;;;;;22.46;52.30;99825.44;5117166;27;45935;-82
2023/07/24 07:12:33;;;;;;;;;1.75;1.75;;;;;22.65;52.67;99856.63;5117366;27;45431;-80
2023/07/24 07:14:58;;;;;;;;;4.50;3.00;;;;;22.67;51.91;99857.28;5117102;27;45283;-78
2023/07/24 07:17:23;;;;;;;;;1.00;1.00;;;;;22.38;52.60;99801.94;5099384;27;45354;-80
2023/07/24 07:19:49;;;;;;;;;1.50;1.50;;;;;22.51;52.60;99825.72;5116425;27;65271;-78
2023/07/24 07:22:14;;;;;;;;;2.00;0.00;;;;;22.56;52.46;99825.19;5117347;27;45395;-78
2023/07/24 07:24:40;;;;;;;;;1.25;1.25;;;;;22.36;52.40;99808.56;5118025;27;45410;-78
2023/07/24 07:27:05;;;;;;;;;3.00;1.00;;;;;22.67;52.86;99849.16;5119210;27;45309;-78
2023/07/24 07:29:31;;;;;;;;;1.50;1.50;;;;;22.69;52.17;99824.59;5118257;27;45498;-79
2023/07/24 07:31:57;;;;;;;;;2.00;2.00;;;;;22.70;52.29;99843.38;5099568;27;45380;-80
2023/07/24 07:34:22;;;;;;;;;1.00;1.00;;;;;22.52;52.31;99851.78;5117296;27;45305;-78
2023/07/24 07:36:48;;;;;;;;;2.00;2.00;;;;;22.11;52.13;99816.03;5117420;27;45651;-78
2023/07/24 07:39:13;;;;;;;;;2.25;2.00;;;;;22.21;52.37;99849.16;5098767;27;47605;-77
2023/07/24 07:41:39;;;;;;;;;2.50;2.50;;;;;22.04;53.67;99852.94;5116772;27;45167;-77
2023/07/24 07:44:04;;;;;;;;;0.50;0.50;;;;;21.94;53.33;99863.16;5117007;27;45380;-79
2023/07/24 07:46:29;;;;;;;;;1.50;1.50;;;;;21.93;52.97;99856.06;5117302;27;45528;-78
2023/07/24 07:48:55;;;;;;;;;2.00;2.00;;;;;22.03;53.06;99857.53;5117544;27;45340;-78
2023/07/24 07:51:20;;;;;;;;;4.00;4.00;;;;;22.21;51.99;99854.56;5120129;27;45335;-76
2023/07/24 07:53:45;;;;;;;;;1.00;1.00;;;;;22.36;51.32;99852.75;5120368;27;45168;-75
2023/07/24 07:56:11;;;;;;;;;2.00;2.00;;;;;22.50;51.48;99853.00;5120264;27;45298;-77
2023/07/24 07:58:36;;;;;;;;;1.00;1.00;;;;;22.54;51.27;99849.78;5119866;27;45656;-77
2023/07/24 08:01:06;;;;;;;;;1.50;1.00;;;;;22.64;50.77;99838.66;5119973;27;45344;-78
2023/07/24 08:03:31;;;;;;;;;1.00;1.00;;;;;22.88;50.21;99849.34;5120003;27;45383;-77
2023/07/24 08:05:58;;;;;;;;;1.00;1.00;;;;;22.72;49.92;99824.22;5101901;27;45477;-78
2023/07/24 08:08:23;;;;;;;;;1.50;1.50;;;;;22.66;50.72;99828.50;5119768;27;45496;-78
2023/07/24 08:10:49;;;;;;;;;1.00;1.00;;;;;22.79;50.89;99863.97;5101501;27;45361;-81
2023/07/24 08:13:14;;;;;;;;;2.00;2.00;;;;;22.72;49.92;99859.44;5119959;27;45233;-79
2023/07/24 08:15:39;;;;;;;;;1.25;1.25;;;;;22.61;50.61;99860.72;5120149;27;45238;-78
2023/07/24 08:18:05;;;;;;;;;1.75;1.50;;;;;22.55;50.67;99875.00;5119780;27;45348;-79
2023/07/24 08:20:31;;;;;;;;;1.00;1.00;;;;;22.23;50.70;99851.66;5120093;27;45363;-79
2023/07/24 08:22:57;;;;;;;;;1.75;1.75;;;;;22.24;50.65;99856.06;5118900;27;45416;-78
2023/07/24 08:25:22;;;;;;;;;2.67;2.67;;;;;22.34;50.63;99873.78;5101170;27;45347;-78
2023/07/24 08:27:47;;;;;;;;;2.00;2.00;;;;;22.34;50.47;99852.09;5100819;27;47753;-78
2023/07/24 08:30:13;;;;;;;;;5.00;5.00;;;;;22.52;49.21;99864.50;5119410;27;45347;-76
2023/07/24 08:32:39;;;;;;;;;2.00;2.00;;;;;22.76;49.57;99863.47;5119648;27;45275;-77
2023/07/24 08:35:05;;;;;;;;;3.00;3.00;;;;;22.88;48.50;99873.72;5119821;27;45319;-77
2023/07/24 08:37:31;;;;;;;;;2.00;2.00;;;;;22.87;48.31;99868.50;5119648;27;46525;-79
2023/07/24 08:39:56;;;;;;;;;2.50;2.50;;;;;22.93;48.26;99865.91;5119507;27;45277;-78
2023/07/24 08:42:22;;;;;;;;;1.00;1.00;;;;;22.90;47.80;99858.13;5119483;27;45389;-76
2023/07/24 08:44:48;;;;;;;;;3.25;2.00;;;;;22.95;47.71;99866.56;5119701;27;45356;-78
2023/07/24 08:47:15;;;;;;;;;3.75;2.00;;;;;22.95;47.46;99865.72;5119200;27;45451;-80
2023/07/24 08:49:42;;;;;;;;;1.75;1.75;;;;;23.00;47.55;99870.59;5119347;27;45368;-78
2023/07/24 08:52:08;;;;;;;;;2.00;2.00;;;;;22.98;46.98;99872.66;5100618;27;45448;-78
2023/07/24 08:54:37;;;;;;;;;3.75;2.25;;;;;22.99;46.67;99877.03;5119575;27;45656;-78
2023/07/24 08:57:04;;;;;;;;;3.75;2.00;;;;;23.09;46.53;99883.06;5100465;27;45343;-79
2023/07/24 08:59:29;;;;;;;;;3.00;3.00;;;;;22.75;46.31;99837.41;5119313;27;45427;-78
2023/07/24 09:01:55;;;;;;;;;1.00;1.00;;;;;23.03;46.59;99870.22;5117937;27;45229;-79
2023/07/24 09:04:21;;;;;;;;;1.00;1.00;;;;;23.10;46.28;99868.47;5119354;27;45230;-78
2023/07/24 09:06:47;;;;;;;;;3.00;1.50;;;;;23.38;46.27;99874.94;5118665;27;45450;-77
2023/07/24 09:09:15;;;;;;;;;3.00;2.00;;;;;23.36;45.55;99849.03;5119145;27;45290;-77
2023/07/24 09:11:51;;;;;;;;;2.25;2.25;;;;;23.51;45.33;99880.56;5119135;27;45391;-79
2023/07/24 09:14:22;;;;;;;;;1.00;1.00;;;;;23.47;44.64;99883.84;5119865;27;45363;-77
2023/07/24 09:16:47;;;;;;;;;1.75;1.75;;;;;22.98;45.37;99791.28;5119567;27;45702;-78
2023/07/24 09:19:18;;;;;;;;;2.50;2.50;;;;;23.59;45.65;99884.28;5100420;27;45923;-77
2023/07/24 09:21:44;;;;;;;;;1.00;1.00;;;;;23.52;43.90;99876.84;5118892;27;45305;-76
2023/07/24 09:24:14;;;;;;;;;2.00;2.00;;;;;23.65;44.11;99887.06;5118959;27;45441;-78
2023/07/24 09:26:53;;;;;;;;;1.00;1.00;;;;;23.63;44.18;99856.56;5118662;27;46052;-76
2023/07/24 09:29:19;;;;;;;;;0.50;0.50;;;;;23.79;43.62;99850.91;5118809;27;45302;-78
2023/07/24 09:31:45;;;;;;;;;3.00;2.25;;;;;24.05;43.79;99883.00;5100258;27;45389;-79
2023/07/24 09:34:17;;;;;;;;;2.00;2.00;;;;;24.25;42.40;99872.38;5118781;27;45586;-78
2023/07/24 09:36:43;;;;;;;;;1.75;1.75;;;;;24.30;42.53;99871.81;5118233;27;46269;-76
2023/07/24 09:39:11;;;;;;;;;2.75;2.75;;;;;24.10;43.10;99858.00;5118531;27;45361;-78
2023/07/24 09:41:40;;;;;;;;;3.25;1.75;;;;;24.05;42.78;99865.84;5118668;27;45630;-78
2023/07/24 09:44:07;;;;;;;;;2.50;1.75;;;;;23.90;42.96;99870.47;5100461;27;45373;-77
2023/07/24 09:46:32;;;;;;;;;3.50;3.00;;;;;23.93;43.68;99857.34;5099979;27;45560;-81
2023/07/24 09:48:58;;;;;;;;;2.25;2.25;;;;;24.11;43.79;99886.84;5118290;27;45369;-79
2023/07/24 09:51:24;;;;;;;;;2.00;2.00;;;;;24.11;43.47;99875.97;5118396;27;45219;-76
2023/07/24 09:53:58;;;;;;;;;3.50;2.00;;;;;24.23;43.55;99884.47;5118494;27;45199;-79
2023/07/24 09:56:25;;;;;;;;;2.00;2.00;;;;;24.34;43.61;99875.84;5118018;27;45488;-77
2023/07/24 09:58:54;;;;;;;;;3.00;3.00;;;;;24.22;44.05;99866.47;5118128;27;45235;-77
2023/07/24 10:01:20;;;;;;;;;1.25;1.25;;;;;24.32;44.18;99880.63;5099695;27;45376;-78
2023/07/24 10:03:48;;;;;;;;;2.75;2.75;;;;;24.37;43.23;99870.03;5118068;27;45538;-78
2023/07/24 10:06:15;;;;;;;;;2.00;2.00;;;;;24.52;42.72;99889.84;5118259;27;45407;-79
2023/07/24 10:08:41;;;;;;;;;1.75;1.75;;;;;24.52;43.06;99880.84;5099225;27;45338;-76
2023/07/24 10:11:11;;;;;;;;;5.25;3.25;;;;;24.45;42.32;99878.03;5118293;27;45447;-78
2023/07/24 10:13:37;;;;;;;;;2.75;2.75;;;;;24.44;41.54;99875.53;5099737;27;45383;-77
2023/07/24 10:16:06;;;;;;;;;2.75;2.75;;;;;24.68;41.21;99895.03;5099399;27;46277;-81
2023/07/24 10:18:32;;;;;;;;;1.40;1.00;;;;;24.77;41.57;99881.31;5117818;27;45463;-81
2023/07/24 10:21:09;;;;;;;;;0.25;0.25;;;;;24.81;41.46;99882.59;5118146;27;45339;-80
2023/07/24 10:23:36;;;;;;;;;4.75;4.25;;;;;24.60;41.53;99873.38;5100194;27;45531;-80
2023/07/24 10:26:06;;;;;;;;;10.00;9.50;;;;;24.50;41.82;99897.34;5118072;27;45620;-78
2023/07/24 10:28:34;;;;;;;;;4.50;4.50;;;;;24.38;42.43;99893.47;5119295;27;45366;-78
2023/07/24 10:31:01;;;;;;;;;2.00;2.00;;;;;24.40;42.78;99877.78;5119925;27;45306;-78
2023/07/24 10:33:30;;;;;;;;;2.75;2.75;;;;;24.37;42.42;99883.63;5118934;27;45436;-80
2023/07/24 10:36:09;;;;;;;;;4.75;3.25;;;;;24.52;42.08;99889.84;5117737;27;45284;-78
2023/07/24 10:38:37;;;;;;;;;3.00;3.00;;;;;24.65;42.36;99879.09;5117840;27;45409;-80
2023/07/24 10:41:04;;;;;;;;;1.25;1.25;;;;;24.82;42.33;99868.78;5117692;27;45327;-78
2023/07/24 10:43:42;;;;;;;;;2.75;1.50;;;;;24.85;42.32;99862.94;5117730;27;45585;-78
2023/07/24 10:46:08;;;;;;;;;2.00;2.00;;;;;25.06;41.66;99883.88;5117528;27;45902;-79
2023/07/24 10:48:34;;;;;;;;;2.00;2.00;;;;;24.95;41.10;99873.50;5117405;27;45484;-78
2023/07/24 10:51:06;;;;;;;;;1.75;1.75;;;;;25.13;41.40;99886.66;5117598;27;45232;-77
2023/07/24 10:53:31;;;;;;;;;3.75;1.75;;;;;25.08;41.89;99892.69;5117495;27;45403;-78
2023/07/24 10:56:00;;;;;;;;;9.00;8.00;;;;;24.87;41.56;99887.22;5116989;27;46535;-78
2023/07/24 10:58:27;;;;;;;;;5.00;5.00;;;;;24.82;42.31;99900.59;5117911;27;45482;-78
2023/07/24 11:00:52;;;;;;;;;2.00;2.00;;;;;24.83;42.14;99910.44;5099829;27;45274;-79
2023/07/24 11:03:18;;;;;;;;;3.00;3.00;;;;;24.99;42.70;99900.09;5118349;27;45539;-79
2023/07/24 11:05:46;;;;;;;;;2.00;2.00;;;;;25.34;41.41;99894.78;5117532;27;46131;-79
2023/07/24 11:08:15;;;;;;;;;1.00;1.00;;;;;25.61;40.18;99898.50;5099062;27;45447;-79
2023/07/24 11:10:50;;;;;;;;;0.60;0.60;;;;;25.47;40.48;99889.41;5099018;27;45290;-78
2023/07/24 11:13:17;;;;;;;;;1.50;1.50;;;;;25.23;41.32;99895.31;5117520;27;45457;-78
2023/07/24 11:15:44;;;;;;;;;3.25;2.75;;;;;25.15;41.39;99896.31;5098419;27;47842;-79
2023/07/24 11:18:10;;;;;;;;;1.40;1.40;;;;;25.32;41.60;99912.34;5117420;27;45217;-77
2023/07/24 11:20:44;;;;;;;;;2.50;2.00;;;;;25.52;41.33;99902.41;5117294;27;45235;-77
2023/07/24 11:23:10;;;;;;;;;2.00;2.00;;;;;25.66;41.07;99900.66;5117573;27;45447;-78
2023/07/24 11:25:37;;;;;;;;;1.80;1.80;;;;;25.70;41.40;99910.13;5119871;27;46391;-79
2023/07/24 11:28:05;;;;;;;;;6.20;3.00;;;;;25.59;40.99;99896.00;5101941;27;45888;-78
2023/07/24 11:30:30;;;;;;;;;2.20;1.60;;;;;25.61;41.02;99903.97;5120587;27;45336;-81